Time;durP1;ratioP1;P1;durP2;ratioP2;P2;SDS_P1;SDS_P2;PMS_P1;PMS_P2;Temp;Humidity;BMP_temperature;BMP_pressure;BME280_temperature;BME280_humidity;BME280_pressure;Samples;Min_cycle;Max_cycle;Signal;HPM_P1;HPM_P2
2024/01/01 00:01:43;;;;;;;;;;;;;;;10.56;60.22;96599.31;4250987;27;5709;-63
2024/01/01 00:03:46;;;;;;;;;;;;;;;10.57;60.00;96603.59;4249398;27;5669;-62
2024/01/01 00:05:49;;;;;;;;;;;;;;;10.59;59.99;96601.56;4256316;27;5658;-63
2024/01/01 00:07:52;;;;;;;;;;;;;;;10.56;60.13;96607.25;4252551;27;5583;-63
2024/01/01 00:09:55;;;;;;;;;;;;;;;10.56;60.38;96605.41;4250766;27;6519;-63
2024/01/01 00:11:58;;;;;;;;;;;;;;;10.55;59.93;96605.63;4250855;27;5712;-61
2024/01/01 00:14:02;;;;;;;;;;;;;;;10.55;60.26;96592.41;4250650;27;5578;-62
2024/01/01 00:16:05;;;;;;;;;;;;;;;10.54;60.07;96585.50;4251126;27;5578;-63
2024/01/01 00:18:08;;;;;;;;;;;;;;;10.54;60.28;96590.78;4250682;27;5570;-63
2024/01/01 00:20:12;;;;;;;;;;;;;;;10.54;60.17;96583.66;4249991;27;5603;-63
2024/01/01 00:22:15;;;;;;;;;;;;;;;10.53;60.11;96582.00;4250782;27;5649;-62
2024/01/01 00:24:18;;;;;;;;;;;;;;;10.53;60.00;96581.19;4250606;27;5098;-62
2024/01/01 00:26:23;;;;;;;;;;;;;;;10.53;60.30;96586.47;4253016;27;6263;-62
2024/01/01 00:28:26;;;;;;;;;;;;;;;10.54;60.24;96582.84;4252737;27;5764;-62
2024/01/01 00:30:28;;;;;;;;;;;;;;;10.56;60.37;96580.81;4250511;27;5578;-62
2024/01/01 00:32:30;;;;;;;;;;;;;;;10.54;60.41;96574.91;4250703;27;5706;-62
2024/01/01 00:34:35;;;;;;;;;;;;;;;10.55;60.26;96580.00;4254481;27;5654;-62
2024/01/01 00:36:38;;;;;;;;;;;;;;;10.54;60.04;96577.56;4254713;27;5658;-62
2024/01/01 00:38:41;;;;;;;;;;;;;;;10.54;60.41;96578.38;4249783;27;5630;-62
2024/01/01 00:40:44;;;;;;;;;;;;;;;10.56;60.47;96570.25;4250788;27;5738;-63
2024/01/01 00:42:49;;;;;;;;;;;;;;;10.56;60.11;96571.06;4250667;27;5838;-63
2024/01/01 00:44:51;;;;;;;;;;;;;;;10.55;60.37;96573.91;4250346;27;6855;-63
2024/01/01 00:46:54;;;;;;;;;;;;;;;10.56;60.24;96568.41;4250663;27;5693;-62
2024/01/01 00:48:58;;;;;;;;;;;;;;;10.56;60.22;96567.59;4250168;27;5583;-63
2024/01/01 00:51:01;;;;;;;;;;;;;;;10.56;60.15;96568.41;4259095;27;5106;-62
2024/01/01 00:53:04;;;;;;;;;;;;;;;10.53;60.34;96566.13;4258989;27;5711;-63
2024/01/01 00:55:08;;;;;;;;;;;;;;;10.49;60.19;96571.00;4249788;27;5657;-62
2024/01/01 00:57:10;;;;;;;;;;;;;;;10.46;60.04;96576.72;4250333;27;5588;-62
2024/01/01 00:59:14;;;;;;;;;;;;;;;10.44;60.29;96570.00;4249799;27;5661;-62
2024/01/01 01:01:18;;;;;;;;;;;;;;;10.43;60.35;96578.94;4253421;27;5764;-63
2024/01/01 01:03:21;;;;;;;;;;;;;;;10.43;60.26;96592.97;4254389;27;5590;-63
2024/01/01 01:05:24;;;;;;;;;;;;;;;10.40;60.49;96587.25;4241829;27;5582;-63
2024/01/01 01:07:30;;;;;;;;;;;;;;;10.37;60.37;96583.16;4251689;27;5670;-63
2024/01/01 01:09:33;;;;;;;;;;;;;;;10.40;60.36;96593.34;4255368;27;5840;-62
2024/01/01 01:11:38;;;;;;;;;;;;;;;10.42;60.37;96588.69;4249792;27;5740;-63
2024/01/01 01:13:41;;;;;;;;;;;;;;;10.42;60.03;96598.44;4251841;27;5596;-61
2024/01/01 01:15:45;;;;;;;;;;;;;;;10.37;60.03;96595.56;4253345;27;5737;-62
2024/01/01 01:17:48;;;;;;;;;;;;;;;10.33;60.29;96595.16;4259723;27;5597;-62
2024/01/01 01:19:51;;;;;;;;;;;;;;;10.32;60.31;96596.16;4254956;27;5699;-63
2024/01/01 01:21:54;;;;;;;;;;;;;;;10.36;60.00;96615.06;4254174;27;5642;-62
2024/01/01 01:23:58;;;;;;;;;;;;;;;10.37;60.11;96616.72;4260182;27;5486;-62
2024/01/01 01:26:02;;;;;;;;;;;;;;;10.37;60.14;96614.88;4257413;27;5682;-62
2024/01/01 01:28:04;;;;;;;;;;;;;;;10.40;60.06;96603.91;4252522;27;5667;-63
2024/01/01 01:30:09;;;;;;;;;;;;;;;10.38;59.91;96616.50;4257794;27;5842;-63
2024/01/01 01:32:14;;;;;;;;;;;;;;;10.38;60.11;96616.50;4253330;27;6506;-61
2024/01/01 01:34:18;;;;;;;;;;;;;;;10.37;60.13;96609.59;4257309;27;5590;-62
2024/01/01 01:36:21;;;;;;;;;;;;;;;10.37;60.11;96606.13;4252051;27;5623;-63
2024/01/01 01:38:24;;;;;;;;;;;;;;;10.36;60.12;96610.59;4256214;27;5560;-62
2024/01/01 01:40:27;;;;;;;;;;;;;;;10.38;59.94;96615.69;4259288;27;5609;-62
2024/01/01 01:42:30;;;;;;;;;;;;;;;10.35;60.13;96622.19;4258928;27;5590;-62
2024/01/01 01:44:33;;;;;;;;;;;;;;;10.35;59.88;96624.03;4253355;27;5669;-62
2024/01/01 01:46:36;;;;;;;;;;;;;;;10.31;59.97;96625.44;4257231;27;5742;-63
2024/01/01 01:48:39;;;;;;;;;;;;;;;10.33;60.20;96624.22;4260210;27;7799;-61
2024/01/01 01:50:45;;;;;;;;;;;;;;;10.35;59.91;96619.56;4256265;27;5646;-62
2024/01/01 01:52:49;;;;;;;;;;;;;;;10.31;60.00;96618.31;4256199;27;5791;-63
2024/01/01 01:54:54;;;;;;;;;;;;;;;10.31;60.21;96636.00;4251985;27;5823;-62
2024/01/01 01:56:58;;;;;;;;;;;;;;;10.31;60.10;96626.25;4260332;27;5687;-61
2024/01/01 01:59:03;;;;;;;;;;;;;;;10.28;59.96;96621.31;4263122;27;5688;-61
2024/01/01 02:01:07;;;;;;;;;;;;;;;10.29;59.93;96622.13;4251857;27;5874;-62
2024/01/01 02:03:10;;;;;;;;;;;;;;;10.33;60.07;96633.97;4256794;27;5599;-62
2024/01/01 02:05:15;;;;;;;;;;;;;;;10.36;59.81;96633.56;4255955;27;5793;-62
2024/01/01 02:07:20;;;;;;;;;;;;;;;10.38;59.80;96632.38;4253840;27;5674;-62
2024/01/01 02:09:23;;;;;;;;;;;;;;;10.34;59.82;96632.97;4253128;27;6896;-62
2024/01/01 02:11:26;;;;;;;;;;;;;;;10.26;59.77;96633.94;4257173;27;5590;-62
2024/01/01 02:13:30;;;;;;;;;;;;;;;10.26;59.88;96633.94;4262893;27;5637;-62
2024/01/01 02:15:34;;;;;;;;;;;;;;;10.26;60.05;96641.84;4252485;27;5635;-63
2024/01/01 02:17:37;;;;;;;;;;;;;;;10.22;59.96;96635.34;4252591;27;5582;-62
2024/01/01 02:19:40;;;;;;;;;;;;;;;10.22;59.80;96635.34;4252585;27;5570;-63
2024/01/01 02:21:44;;;;;;;;;;;;;;;10.20;59.74;96650.53;4252464;27;5680;-62
2024/01/01 02:23:49;;;;;;;;;;;;;;;10.19;59.67;96648.88;4256221;27;5594;-62
2024/01/01 02:25:52;;;;;;;;;;;;;;;10.14;59.48;96656.59;4252237;27;6230;-62
2024/01/01 02:27:55;;;;;;;;;;;;;;;10.14;59.77;96648.66;4258777;27;6253;-63
2024/01/01 02:29:58;;;;;;;;;;;;;;;10.15;59.81;96647.66;4252219;27;5586;-62
2024/01/01 02:32:01;;;;;;;;;;;;;;;10.19;60.02;96648.88;4252475;27;5598;-62
2024/01/01 02:34:03;;;;;;;;;;;;;;;10.20;59.93;96645.25;4260816;27;5749;-61
2024/01/01 02:36:06;;;;;;;;;;;;;;;10.20;59.80;96646.06;4252027;27;5634;-62
2024/01/01 02:38:10;;;;;;;;;;;;;;;10.20;59.79;96643.44;4252081;27;5697;-62
2024/01/01 02:40:15;;;;;;;;;;;;;;;10.20;59.77;96650.53;4251319;27;6291;-62
2024/01/01 02:42:18;;;;;;;;;;;;;;;10.19;59.89;96644.44;4252460;27;5629;-63
2024/01/01 02:44:20;;;;;;;;;;;;;;;10.18;59.54;96649.88;4251913;27;5626;-62
2024/01/01 02:46:22;;;;;;;;;;;;;;;10.18;59.79;96657.81;4252015;27;5582;-62
2024/01/01 02:48:26;;;;;;;;;;;;;;;10.18;60.06;96655.16;4251832;27;5760;-60
2024/01/01 02:50:30;;;;;;;;;;;;;;;10.23;60.01;96667.84;4252083;27;5629;-62
2024/01/01 02:52:33;;;;;;;;;;;;;;;10.22;59.79;96660.94;4252013;27;5780;-62
2024/01/01 02:54:35;;;;;;;;;;;;;;;10.18;59.93;96663.91;4259572;27;5661;-62
2024/01/01 02:56:40;;;;;;;;;;;;;;;10.11;59.90;96671.00;4252096;27;5716;-62
2024/01/01 02:58:42;;;;;;;;;;;;;;;10.10;59.99;96677.28;4251753;27;5638;-62
2024/01/01 03:00:47;;;;;;;;;;;;;;;10.10;59.75;96668.56;4251312;27;5732;-62
2024/01/01 03:02:51;;;;;;;;;;;;;;;10.08;59.88;96667.91;4251928;27;5594;-62
2024/01/01 03:04:53;;;;;;;;;;;;;;;10.08;59.66;96667.91;4251768;27;5629;-62
2024/01/01 03:06:56;;;;;;;;;;;;;;;10.04;59.73;96664.03;4251053;27;5684;-62
2024/01/01 03:08:59;;;;;;;;;;;;;;;10.01;59.80;96662.59;4255995;27;6319;-62
2024/01/01 03:11:01;;;;;;;;;;;;;;;10.07;59.91;96668.91;4251037;27;5602;-62
2024/01/01 03:13:05;;;;;;;;;;;;;;;10.10;59.89;96671.19;4251817;27;5594;-62
2024/01/01 03:15:09;;;;;;;;;;;;;;;10.12;60.02;96659.41;4251923;27;5630;-62
2024/01/01 03:17:12;;;;;;;;;;;;;;;10.14;60.01;96661.88;4251415;27;5661;-62
2024/01/01 03:19:15;;;;;;;;;;;;;;;10.14;60.00;96661.88;4251512;27;5590;-62
2024/01/01 03:21:19;;;;;;;;;;;;;;;10.12;60.12;96650.69;4251219;27;5625;-62
2024/01/01 03:23:22;;;;;;;;;;;;;;;10.12;60.00;96658.59;4251434;27;5661;-62
2024/01/01 03:25:25;;;;;;;;;;;;;;;10.14;59.84;96660.03;4250721;27;5753;-62
2024/01/01 03:27:28;;;;;;;;;;;;;;;10.16;59.82;96654.56;4251261;27;5708;-63
2024/01/01 03:29:32;;;;;;;;;;;;;;;10.16;59.73;96659.84;4251023;27;5579;-62
2024/01/01 03:31:35;;;;;;;;;;;;;;;10.16;59.97;96654.56;4250078;27;5586;-62
2024/01/01 03:33:38;;;;;;;;;;;;;;;10.18;59.97;96657.81;4264449;27;5081;-62
2024/01/01 03:35:41;;;;;;;;;;;;;;;10.20;60.32;96655.81;4254950;27;5780;-62
2024/01/01 03:37:44;;;;;;;;;;;;;;;10.20;60.18;96655.81;4250297;27;5582;-61
2024/01/01 03:39:47;;;;;;;;;;;;;;;10.20;60.29;96653.19;4250028;27;5591;-63
2024/01/01 03:41:51;;;;;;;;;;;;;;;10.23;60.17;96652.00;4250359;27;5713;-63
2024/01/01 03:43:56;;;;;;;;;;;;;;;10.26;59.97;96655.06;4251190;27;5629;-63
2024/01/01 03:46:00;;;;;;;;;;;;;;;10.28;60.42;96650.38;4251184;27;5578;-62
2024/01/01 03:48:04;;;;;;;;;;;;;;;10.26;60.31;96649.78;4259308;27;5579;-63
2024/01/01 03:50:07;;;;;;;;;;;;;;;10.25;60.26;96645.50;4259396;27;5745;-63
2024/01/01 03:52:11;;;;;;;;;;;;;;;10.23;60.28;96642.25;4251233;27;6088;-63
2024/01/01 03:54:14;;;;;;;;;;;;;;;10.22;60.47;96647.72;4258419;27;5658;-63
2024/01/01 03:56:17;;;;;;;;;;;;;;;10.23;60.35;96646.72;4249995;27;5630;-63
2024/01/01 03:58:20;;;;;;;;;;;;;;;10.22;60.45;96648.53;4250348;27;5645;-63
2024/01/01 04:00:24;;;;;;;;;;;;;;;10.25;60.52;96648.16;4250797;27;5579;-62
2024/01/01 04:02:28;;;;;;;;;;;;;;;10.26;60.53;96656.88;4259659;27;5618;-63
2024/01/01 04:04:31;;;;;;;;;;;;;;;10.27;60.56;96654.03;4250938;27;5828;-63
2024/01/01 04:06:34;;;;;;;;;;;;;;;10.29;60.51;96649.38;4254945;27;5662;-62
2024/01/01 04:08:36;;;;;;;;;;;;;;;10.32;60.53;96653.47;4256755;27;5641;-64
2024/01/01 04:10:39;;;;;;;;;;;;;;;10.32;60.19;96653.47;4254621;27;5859;-63
2024/01/01 04:13:03;;;;;;;;;;;;;;;10.32;60.35;96656.94;4248229;27;5697;-62
2024/01/01 04:15:06;;;;;;;;;;;;;;;10.35;59.82;96653.91;4259490;27;5559;-63
2024/01/01 04:17:09;;;;;;;;;;;;;;;10.37;59.82;96656.34;4267595;27;5572;-63
2024/01/01 04:19:14;;;;;;;;;;;;;;;10.36;59.68;96660.81;4250736;27;5656;-63
2024/01/01 04:21:17;;;;;;;;;;;;;;;10.34;59.77;96662.03;4251044;27;5664;-62
2024/01/01 04:23:20;;;;;;;;;;;;;;;10.32;59.69;96664.06;4250769;27;5703;-62
2024/01/01 04:25:23;;;;;;;;;;;;;;;10.27;59.39;96661.97;4250570;27;5583;-63
2024/01/01 04:27:26;;;;;;;;;;;;;;;10.23;59.34;96665.22;4259334;27;5721;-63
2024/01/01 04:29:29;;;;;;;;;;;;;;;10.22;59.55;96664.41;4253898;27;5687;-62
2024/01/01 04:31:32;;;;;;;;;;;;;;;10.20;59.75;96667.19;4255525;27;5641;-63
2024/01/01 04:33:35;;;;;;;;;;;;;;;10.16;59.38;96660.66;4250229;27;5707;-63
2024/01/01 04:35:40;;;;;;;;;;;;;;;10.13;59.74;96654.94;4236172;27;5659;-63
2024/01/01 04:37:43;;;;;;;;;;;;;;;10.09;59.65;96656.34;4250807;27;5727;-62
2024/01/01 04:39:46;;;;;;;;;;;;;;;10.08;59.77;96657.34;4250441;27;5567;-62
2024/01/01 04:41:49;;;;;;;;;;;;;;;10.06;59.62;96657.53;4249301;27;5618;-62
2024/01/01 04:43:52;;;;;;;;;;;;;;;10.01;59.39;96657.31;4250830;27;5593;-62
2024/01/01 04:45:55;;;;;;;;;;;;;;;10.01;59.47;96657.31;4259047;27;5677;-62
2024/01/01 04:47:58;;;;;;;;;;;;;;;10.04;59.62;96651.63;4250627;27;5633;-62
2024/01/01 04:50:01;;;;;;;;;;;;;;;10.07;59.40;96658.34;4250774;27;5728;-61
2024/01/01 04:52:06;;;;;;;;;;;;;;;10.07;59.43;96651.25;4235748;28;5775;-62
2024/01/01 04:54:09;;;;;;;;;;;;;;;10.08;59.36;96649.41;4254065;27;5700;-62
2024/01/01 04:56:12;;;;;;;;;;;;;;;10.08;59.21;96633.56;4254049;27;5582;-61
2024/01/01 04:58:14;;;;;;;;;;;;;;;10.07;59.24;96639.88;4262471;27;5638;-62
2024/01/01 05:00:18;;;;;;;;;;;;;;;10.07;59.57;96629.28;4267663;27;5571;-62
2024/01/01 05:02:22;;;;;;;;;;;;;;;10.08;59.33;96630.94;4253537;27;5738;-62
2024/01/01 05:04:25;;;;;;;;;;;;;;;10.11;59.59;96635.84;4253076;27;5582;-62
2024/01/01 05:06:28;;;;;;;;;;;;;;;10.12;59.25;96642.75;4256736;27;5571;-62
2024/01/01 05:08:32;;;;;;;;;;;;;;;10.12;59.44;96659.41;4261847;27;5575;-61
2024/01/01 05:10:36;;;;;;;;;;;;;;;10.11;59.55;96660.44;4257339;27;5669;-62
2024/01/01 05:12:39;;;;;;;;;;;;;;;10.09;59.63;96653.72;4252765;27;5587;-62
2024/01/01 05:14:42;;;;;;;;;;;;;;;10.08;59.58;96657.34;4253210;27;5586;-62
2024/01/01 05:16:46;;;;;;;;;;;;;;;10.07;59.41;96659.16;4252744;27;5629;-63
2024/01/01 05:18:49;;;;;;;;;;;;;;;10.06;59.30;96662.00;4253689;27;6190;-63
2024/01/01 05:20:52;;;;;;;;;;;;;;;10.07;59.49;96661.00;4253526;27;5744;-63
2024/01/01 05:22:55;;;;;;;;;;;;;;;10.07;59.24;96655.72;4253696;27;5756;-63
2024/01/01 05:25:00;;;;;;;;;;;;;;;10.06;59.19;96662.81;4253572;27;5738;-62
2024/01/01 05:27:07;;;;;;;;;;;;;;;10.07;59.39;96666.28;4253318;27;5800;-62
2024/01/01 05:29:10;;;;;;;;;;;;;;;10.02;59.09;96668.69;4254478;27;5711;-61
2024/01/01 05:31:18;;;;;;;;;;;;;;;9.91;59.13;96670.84;4253449;27;5586;-62
2024/01/01 05:33:21;;;;;;;;;;;;;;;9.94;59.07;96677.56;4253261;27;5948;-62
2024/01/01 05:35:24;;;;;;;;;;;;;;;9.95;59.17;96665.19;4253200;27;5629;-62
2024/01/01 05:37:28;;;;;;;;;;;;;;;9.95;59.28;96668.63;4253311;27;5590;-63
2024/01/01 05:39:31;;;;;;;;;;;;;;;9.98;58.94;96668.28;4252950;27;5582;-62
2024/01/01 05:41:34;;;;;;;;;;;;;;;9.96;58.84;96669.44;4253074;27;5586;-62
2024/01/01 05:43:37;;;;;;;;;;;;;;;9.92;59.19;96659.28;4252422;27;6197;-62
2024/01/01 05:45:40;;;;;;;;;;;;;;;9.92;58.87;96664.56;4253002;27;5646;-62
2024/01/01 05:47:43;;;;;;;;;;;;;;;9.91;59.13;96656.84;4252852;27;5634;-63
2024/01/01 05:49:47;;;;;;;;;;;;;;;9.93;59.05;96652.97;4252561;27;5637;-63
2024/01/01 05:51:50;;;;;;;;;;;;;;;9.94;59.14;96653.78;4253187;27;5629;-61
2024/01/01 05:53:57;;;;;;;;;;;;;;;9.94;58.99;96651.16;4252768;27;5586;-62
2024/01/01 05:56:00;;;;;;;;;;;;;;;9.95;58.87;96654.63;4260808;27;5742;-62
2024/01/01 05:58:05;;;;;;;;;;;;;;;9.95;59.08;96655.44;4253498;27;5637;-62
2024/01/01 06:00:10;;;;;;;;;;;;;;;9.95;59.09;96659.91;4251640;27;5625;-62
2024/01/01 06:02:13;;;;;;;;;;;;;;;9.95;59.07;96657.25;4251765;27;5727;-63
2024/01/01 06:04:16;;;;;;;;;;;;;;;9.98;58.85;96664.81;4252691;27;5583;-62
2024/01/01 06:06:19;;;;;;;;;;;;;;;9.98;59.02;96673.56;4254412;27;5579;-62
2024/01/01 06:08:22;;;;;;;;;;;;;;;9.93;58.86;96682.03;4258697;27;5851;-63
2024/01/01 06:10:25;;;;;;;;;;;;;;;9.88;58.94;96679.16;4252786;27;5093;-62
2024/01/01 06:12:28;;;;;;;;;;;;;;;9.89;58.76;96686.06;4266795;27;5633;-62
2024/01/01 06:14:31;;;;;;;;;;;;;;;9.90;58.91;96673.69;4252472;27;5634;-62
2024/01/01 06:16:34;;;;;;;;;;;;;;;9.94;59.17;96685.50;4252752;27;5740;-62
2024/01/01 06:18:37;;;;;;;;;;;;;;;10.00;59.10;96681.28;4252526;27;5633;-63
2024/01/01 06:20:41;;;;;;;;;;;;;;;10.00;58.85;96676.00;4252542;27;5639;-63
2024/01/01 06:22:43;;;;;;;;;;;;;;;10.00;59.23;96682.09;4252504;27;5665;-63
2024/01/01 06:24:46;;;;;;;;;;;;;;;10.02;58.89;96685.34;4256546;27;5580;-61
2024/01/01 06:26:49;;;;;;;;;;;;;;;10.03;58.57;96686.16;4251627;27;5653;-62
2024/01/01 06:28:52;;;;;;;;;;;;;;;10.01;58.88;96693.47;4252516;27;5720;-63
2024/01/01 06:30:55;;;;;;;;;;;;;;;10.02;58.73;96690.63;4259183;27;5825;-63
2024/01/01 06:32:58;;;;;;;;;;;;;;;10.03;58.56;96686.97;4253676;27;5581;-63
2024/01/01 06:35:01;;;;;;;;;;;;;;;10.04;58.78;96693.06;4253620;27;5637;-63
2024/01/01 06:37:07;;;;;;;;;;;;;;;10.05;58.72;96684.97;4256768;27;5806;-63
2024/01/01 06:39:10;;;;;;;;;;;;;;;10.03;58.32;96692.25;4252074;27;5614;-62
2024/01/01 06:41:13;;;;;;;;;;;;;;;10.05;58.74;96689.44;4252513;27;5621;-63
2024/01/01 06:43:16;;;;;;;;;;;;;;;10.05;58.13;96695.53;4256934;27;5576;-63
2024/01/01 06:45:19;;;;;;;;;;;;;;;10.02;58.59;96695.09;4251304;27;5689;-64
2024/01/01 06:47:24;;;;;;;;;;;;;;;10.00;58.44;96705.03;4252129;27;5650;-62
2024/01/01 06:49:27;;;;;;;;;;;;;;;10.01;58.32;96701.41;4251790;27;5607;-63
2024/01/01 06:51:34;;;;;;;;;;;;;;;10.01;58.48;96698.75;4252182;27;5678;-61
2024/01/01 06:53:37;;;;;;;;;;;;;;;10.04;58.26;96698.38;4252128;27;5602;-64
2024/01/01 06:55:40;;;;;;;;;;;;;;;10.06;58.43;96705.09;4256807;27;5564;-64
2024/01/01 06:57:43;;;;;;;;;;;;;;;10.05;58.20;96705.28;4255294;27;5792;-63
2024/01/01 06:59:46;;;;;;;;;;;;;;;10.00;58.41;96703.22;4251344;27;5633;-64
2024/01/01 07:01:50;;;;;;;;;;;;;;;9.99;58.37;96712.16;4253271;27;5682;-62
2024/01/01 07:03:54;;;;;;;;;;;;;;;9.98;58.19;96707.88;4251870;27;5645;-63
2024/01/01 07:05:57;;;;;;;;;;;;;;;10.00;58.30;96713.78;4259062;27;5568;-63
2024/01/01 07:07:58;;;;;;;;;;;;;;;10.03;58.01;96716.03;4252622;27;5799;-62
2024/01/01 07:10:02;;;;;;;;;;;;;;;10.05;58.29;96716.66;4252011;27;5586;-63
2024/01/01 07:12:19;;;;;;;;;;;;;;;10.04;58.34;96722.94;4258045;27;5638;-62
2024/01/01 07:14:22;;;;;;;;;;;;;;;10.08;58.06;96726.84;4251424;27;5864;-62
2024/01/01 07:16:25;;;;;;;;;;;;;;;10.06;57.98;96728.84;4251662;27;5629;-62
2024/01/01 07:18:27;;;;;;;;;;;;;;;10.07;58.16;96727.84;4253915;27;5603;-63
2024/01/01 07:20:32;;;;;;;;;;;;;;;10.07;57.80;96729.66;4252959;27;5595;-62
2024/01/01 07:22:35;;;;;;;;;;;;;;;10.08;57.86;96739.22;4264886;27;5586;-62
2024/01/01 07:24:38;;;;;;;;;;;;;;;10.09;58.13;96735.59;4260037;27;5701;-62
2024/01/01 07:26:41;;;;;;;;;;;;;;;10.08;57.87;96737.44;4251507;27;5571;-61
2024/01/01 07:28:44;;;;;;;;;;;;;;;10.08;57.76;96737.44;4250532;27;5586;-63
2024/01/01 07:30:47;;;;;;;;;;;;;;;10.10;58.07;96745.16;4251330;27;5598;-64
2024/01/01 07:32:50;;;;;;;;;;;;;;;10.08;58.11;96747.16;4251382;27;5736;-62
2024/01/01 07:34:52;;;;;;;;;;;;;;;10.10;58.03;96745.16;4251301;27;5755;-63
2024/01/01 07:36:58;;;;;;;;;;;;;;;10.09;57.92;96748.81;4251463;27;5590;-61
2024/01/01 07:39:01;;;;;;;;;;;;;;;10.08;58.06;96747.16;4251315;27;5617;-62
2024/01/01 07:41:05;;;;;;;;;;;;;;;10.09;57.86;96743.53;4250307;27;5637;-63
2024/01/01 07:43:07;;;;;;;;;;;;;;;10.10;57.94;96742.50;4254825;27;5579;-62
2024/01/01 07:45:10;;;;;;;;;;;;;;;10.09;57.76;96754.09;4251045;27;5748;-62
2024/01/01 07:47:15;;;;;;;;;;;;;;;10.08;57.83;96752.44;4251684;27;5662;-62
2024/01/01 07:49:19;;;;;;;;;;;;;;;10.10;58.04;96753.06;4250967;27;5622;-62
2024/01/01 07:51:22;;;;;;;;;;;;;;;10.13;57.95;96757.97;4260999;27;5069;-63
2024/01/01 07:53:27;;;;;;;;;;;;;;;10.12;57.91;96758.97;4256943;27;7734;-62
2024/01/01 07:55:30;;;;;;;;;;;;;;;10.15;57.77;96761.22;4253317;27;5610;-62
2024/01/01 07:57:34;;;;;;;;;;;;;;;10.17;57.66;96759.22;4256565;27;5802;-63
2024/01/01 07:59:36;;;;;;;;;;;;;;;10.18;57.57;96763.47;4255340;27;5625;-62
2024/01/01 08:01:39;;;;;;;;;;;;;;;10.19;57.92;96760.69;4255732;27;5564;-62
2024/01/01 08:03:43;;;;;;;;;;;;;;;10.19;57.48;96763.31;4254191;27;5618;-62
2024/01/01 08:05:45;;;;;;;;;;;;;;;10.20;57.77;96762.31;4250873;27;5784;-63
2024/01/01 08:07:48;;;;;;;;;;;;;;;10.21;57.78;96763.13;4251025;27;5741;-62
2024/01/01 08:09:54;;;;;;;;;;;;;;;10.23;57.96;96760.31;4250526;27;5686;-62
2024/01/01 08:11:57;;;;;;;;;;;;;;;10.25;57.79;96753.81;4250877;27;5586;-63
2024/01/01 08:14:00;;;;;;;;;;;;;;;10.28;57.53;96763.19;4257379;27;5748;-61
2024/01/01 08:16:07;;;;;;;;;;;;;;;10.28;57.54;96764.00;4250839;27;5807;-62
2024/01/01 08:18:10;;;;;;;;;;;;;;;10.30;57.88;96761.97;4250705;27;5718;-62
2024/01/01 08:20:13;;;;;;;;;;;;;;;10.28;57.91;96756.06;4250831;27;5681;-63
2024/01/01 08:22:16;;;;;;;;;;;;;;;10.28;57.78;96764.00;4252183;27;5605;-62
2024/01/01 08:24:19;;;;;;;;;;;;;;;10.25;57.48;96767.03;4257505;27;5695;-62
2024/01/01 08:26:24;;;;;;;;;;;;;;;10.22;57.57;96770.06;4253579;27;5716;-62
2024/01/01 08:28:27;;;;;;;;;;;;;;;10.22;57.67;96770.06;4237478;27;5606;-62
2024/01/01 08:30:30;;;;;;;;;;;;;;;10.24;58.08;96765.41;4259280;27;5765;-62
2024/01/01 08:32:32;;;;;;;;;;;;;;;10.27;58.14;96766.84;4254186;27;5586;-62
2024/01/01 08:34:35;;;;;;;;;;;;;;;10.29;57.92;96768.28;4254164;27;5855;-61
2024/01/01 08:36:38;;;;;;;;;;;;;;;10.31;57.77;96768.13;4254259;27;5579;-62
2024/01/01 08:38:42;;;;;;;;;;;;;;;10.32;57.84;96756.53;4262325;27;5582;-63
2024/01/01 08:40:45;;;;;;;;;;;;;;;10.34;58.03;96763.25;4259841;27;5587;-62
2024/01/01 08:42:50;;;;;;;;;;;;;;;10.36;57.96;96761.22;4262478;27;5670;-62
2024/01/01 08:44:53;;;;;;;;;;;;;;;10.37;57.71;96762.03;4255512;27;5744;-62
2024/01/01 08:46:56;;;;;;;;;;;;;;;10.39;58.04;96765.31;4253186;27;5637;-62
2024/01/01 08:48:59;;;;;;;;;;;;;;;10.42;58.08;96768.41;4253571;27;5586;-63
2024/01/01 08:51:03;;;;;;;;;;;;;;;10.41;57.89;96769.38;4254061;27;6354;-62
2024/01/01 08:53:06;;;;;;;;;;;;;;;10.43;58.17;96770.03;4253650;27;5670;-62
2024/01/01 08:55:10;;;;;;;;;;;;;;;10.45;58.17;96769.84;4253901;27;6356;-63
2024/01/01 08:57:13;;;;;;;;;;;;;;;10.48;57.68;96764.97;4254810;27;5586;-63
2024/01/01 08:59:17;;;;;;;;;;;;;;;10.49;57.77;96774.53;4262221;27;5973;-61
2024/01/01 09:01:20;;;;;;;;;;;;;;;10.50;58.00;96768.22;4261197;27;5571;-62
2024/01/01 09:03:23;;;;;;;;;;;;;;;10.48;57.70;96777.38;4253797;27;5728;-62
2024/01/01 09:05:26;;;;;;;;;;;;;;;10.50;58.19;96783.28;4253815;27;5598;-62
2024/01/01 09:07:29;;;;;;;;;;;;;;;10.50;58.10;96784.09;4253846;27;5582;-64
2024/01/01 09:09:37;;;;;;;;;;;;;;;10.52;57.78;96786.53;4262411;27;5563;-63
2024/01/01 09:11:39;;;;;;;;;;;;;;;10.55;57.84;96785.34;4257585;27;5806;-63
2024/01/01 09:13:41;;;;;;;;;;;;;;;10.59;58.25;96781.31;4256573;27;7650;-64
2024/01/01 09:15:46;;;;;;;;;;;;;;;10.59;58.02;96781.31;4256481;27;6383;-65
2024/01/01 09:17:50;;;;;;;;;;;;;;;10.63;58.18;96783.38;4253816;27;5735;-64
2024/01/01 09:19:53;;;;;;;;;;;;;;;10.63;57.76;96782.53;4253568;27;5737;-63
2024/01/01 09:21:57;;;;;;;;;;;;;;;10.62;57.80;96780.91;4253750;27;6272;-62
2024/01/01 09:24:01;;;;;;;;;;;;;;;10.61;58.03;96776.66;4253116;27;5614;-62
2024/01/01 09:26:05;;;;;;;;;;;;;;;10.61;58.08;96779.28;4253350;27;5654;-63
2024/01/01 09:28:08;;;;;;;;;;;;;;;10.62;58.15;96791.50;4253394;27;5676;-63
2024/01/01 09:30:12;;;;;;;;;;;;;;;10.64;57.70;96800.84;4253139;27;5657;-63
2024/01/01 09:32:17;;;;;;;;;;;;;;;10.62;58.13;96786.19;4264087;27;5627;-62
2024/01/01 09:34:20;;;;;;;;;;;;;;;10.62;58.03;96794.13;4253135;27;5714;-62
2024/01/01 09:36:23;;;;;;;;;;;;;;;10.64;57.86;96800.03;4252273;27;5602;-63
2024/01/01 09:38:25;;;;;;;;;;;;;;;10.63;58.04;96801.06;4252590;27;5918;-61
2024/01/01 09:40:29;;;;;;;;;;;;;;;10.63;58.00;96804.50;4253306;27;5578;-63
2024/01/01 09:42:33;;;;;;;;;;;;;;;10.66;57.67;96803.34;4253107;27;5705;-62
2024/01/01 09:44:37;;;;;;;;;;;;;;;10.67;58.10;96803.13;4252942;27;5617;-62
2024/01/01 09:46:40;;;;;;;;;;;;;;;10.67;57.83;96799.69;4261317;27;5578;-62
2024/01/01 09:48:45;;;;;;;;;;;;;;;10.66;58.06;96803.34;4253014;27;5731;-62
2024/01/01 09:50:49;;;;;;;;;;;;;;;10.69;57.85;96806.41;4253177;27;7271;-62
2024/01/01 09:53:00;;;;;;;;;;;;;;;10.70;57.81;96799.28;4253348;27;5185;-61
2024/01/01 09:55:03;;;;;;;;;;;;;;;10.73;58.09;96817.41;4253007;27;5840;-62
2024/01/01 09:57:06;;;;;;;;;;;;;;;10.75;57.82;96820.66;4261610;27;5619;-62
2024/01/01 09:59:10;;;;;;;;;;;;;;;10.76;58.00;96822.31;4252512;27;5709;-62
2024/01/01 10:01:16;;;;;;;;;;;;;;;10.76;57.77;96814.38;4253026;27;5855;-61
2024/01/01 10:03:20;;;;;;;;;;;;;;;10.79;57.90;96822.75;4239479;27;5597;-62
2024/01/01 10:05:25;;;;;;;;;;;;;;;10.79;57.76;96814.81;4253540;27;5642;-62
2024/01/01 10:07:28;;;;;;;;;;;;;;;10.80;57.59;96810.34;4252738;27;5618;-62
2024/01/01 10:09:32;;;;;;;;;;;;;;;10.82;57.58;96818.88;4252212;27;5653;-62
2024/01/01 10:11:40;;;;;;;;;;;;;;;10.83;57.65;96812.59;4252737;27;5583;-62
2024/01/01 10:13:43;;;;;;;;;;;;;;;10.83;57.55;96809.94;4256244;27;5778;-63
2024/01/01 10:15:56;;;;;;;;;;;;;;;10.83;57.51;96809.94;4265861;27;5741;-62
2024/01/01 10:18:08;;;;;;;;;;;;;;;10.88;57.51;96801.44;4270014;27;5592;-62
2024/01/01 10:20:12;;;;;;;;;;;;;;;10.93;57.74;96805.13;4250726;27;6088;-62
2024/01/01 10:22:18;;;;;;;;;;;;;;;10.90;57.23;96800.22;4252584;27;6342;-63
2024/01/01 10:24:22;;;;;;;;;;;;;;;10.93;57.37;96797.19;4252509;27;6812;-62
2024/01/01 10:26:39;;;;;;;;;;;;;;;10.96;57.30;96795.97;4256787;27;5582;-61
2024/01/01 10:28:42;;;;;;;;;;;;;;;10.97;57.56;96801.06;4256341;27;5957;-63
2024/01/01 10:30:46;;;;;;;;;;;;;;;10.97;57.37;96793.13;4254948;27;6315;-62
2024/01/01 10:32:53;;;;;;;;;;;;;;;10.98;57.41;96794.75;4254790;27;5637;-62
2024/01/01 10:34:58;;;;;;;;;;;;;;;11.01;57.49;96801.50;4252302;27;5618;-61
2024/01/01 10:37:01;;;;;;;;;;;;;;;11.02;57.54;96803.94;4251965;27;5716;-62
2024/01/01 10:39:06;;;;;;;;;;;;;;;11.05;57.36;96800.91;4268763;27;5656;-62
2024/01/01 10:41:11;;;;;;;;;;;;;;;11.05;57.19;96806.19;4252359;27;5703;-62
2024/01/01 10:43:13;;;;;;;;;;;;;;;11.04;57.32;96804.56;4256953;27;5779;-62
2024/01/01 10:45:16;;;;;;;;;;;;;;;11.06;56.98;96807.00;4259794;27;5571;-63
2024/01/01 10:47:21;;;;;;;;;;;;;;;11.04;57.06;96807.22;4258831;27;5698;-63
2024/01/01 10:49:30;;;;;;;;;;;;;;;11.04;56.99;96806.41;4253264;27;5640;-62
2024/01/01 10:51:45;;;;;;;;;;;;;;;11.02;56.90;96793.38;4256750;27;5752;-62
2024/01/01 10:54:08;;;;;;;;;;;;;;;11.02;56.62;96798.66;4259518;27;5657;-62